Capitol Logistics 7482

Operating for MZN



KSBD
San Bernardino International Airport
San Bernardino, California
KAFW
Fort Worth Alliance Airport
Fort Worth, Texas

Activity Log

Date Flight Route Aircraft Duration
06/10/2021 CPX7482 PSP J212 BXK PXR SJN CNX J74 TXO GREGS9 A30F 2h 24m

Route Details

Aircraft Information
Group: North America Fleet
Types: B738,B752,B762,B763
Route Data
Distance: 998nm
Duration: 2h 27m
Recm'd Route: PSP T306 BLH J65 CME J166 DUMPS HNKER WESAT2
Origin Wx: KSBD 160940Z AUTO 00000KT 10SM CLR 13/M07 A3006 RMK AO2 T01301071
Dest. Wx: KAFW 160853Z 32004KT 10SM CLR 09/06 A3030 RMK AO2 SLP257 T00940056 50008
Notes:

Financial History
Total Freight: 60,308lbs
Average Load: 60,308lbs/flt
Fuel Used: 26,731lbs
Avg. Fuel Used: 26,731lbs/flt
Fuel Expense: $6,683
Avg. Fuel Expense: $6,683
Avg. Fuel Cost: $0.25/lbs
Total Gross Income: $126,044
Pilot Pay: $259
Total Expenses: $14,221
Total Revenue: $104,519
Average Revenue: $126,043.72